Centenary, Louisiana
Current Conditions -  °F | °C
As of 9:53 AM on Saturday 22 Nov 2014 (Local Time) from KDTN Reporting Station
Broken Clouds Broken Clouds  
Wind Chill: 62°   Ceiling: 4100
Heat Index: 62°   Visibility: 10mi
Dew Point: 52°   Wind: 10mph
Humidity: 70%   Direction: 130°SE
Pressure: 30.15"   Gusts: NA
Location:  32.4835°N, 93.7335°W
Report Text: KDTN 221553Z 13009KT 10SM BKN041 17/11 A3015 RMK AO2 SLP207 T01670111
Loading
Personal Weather Stations






























Interactive Weather Map New forecast layout! Learn more

10-Day Weather Forecast

Advertisements
Track Severe Weather on mobile